Hauptseite
METAR-TAF:

METAR-TAF

Flughäfen :

Southampton International Airport

Southampton, England

Breite: 50-54N, Länge: 001-24W, Höhe: 9 m

Beobachtung

Neuester Wetterbericht von vor 7 Stunden und 38 Minuten, um 22:20 UTC
Wind 5 kt aus Nordost, variierte zwischen Nord und Ost
Temperatur 5°C
Luftfeuchtigkeit 81%
Luftdruck 1023 hPa
Sichtweite 10 km oder mehr
keine Wolken unter 1500 m und keine Kumulonimbus oder Gewitterwolken

METAR: EGHI 182220Z 04005KT 350V080 CAVOK 05/02 Q1023

Zeit: 05:58 (05:58 UTC)

Prognose

Neuester Wetterbericht von vor 10 Stunden und 5 Minuten, um 19:53 UTC
Gültige Prognose vom 18 um 21 UTC bis 18 um 23 UTC
Wind 9 kt aus Nordost
Sichtweite 10 km oder mehr
keine Wolken unter 1500 m und keine Kumulonimbus oder Gewitterwolken
Wahrscheinlichkeit 30%
vom 18 um 21 UTC bis 18 um 23 UTC
Sichtweite: 8000 m

TAF: EGHI 181953Z 1821/1823 05009KT CAVOK PROB30 1821/1823 8000

Wetterbeobachtungen und Prognosen von mehr als 4000 Flughäfen (METAR und TAF Bericht).

Die verfügbaren Stationen werden durch gelbe und rote Markierungen auf der Karte dargestellt.

Führen Sie die Maus auf sie, um den Namen der Station zu sehen.

Darauf klicken, um die Beobachtung von Wetterbeobachtungen und Prognosen zu sehen.

Um die Karte zu ändern : klicken Sie auf den grünen Tasten mit einem schwarzen Kreuz Zum Vergrößern, auf den grünen Button mit einem Gedankenstrich zu verkleinern, oder auf die grünen Pfeile für benachbarte Karten.


METAR-TAF: